»·PEaware :: N250EF KSBA-KBUR

N250EF :: KSBA-KBUR

FLIGHT INFORMATION

Flight Status: Arrived
Operator: Privately registered:
United States
More flights under this callsign
Pilot: Patrice R. (32329)
Aircraft: BEECH AIRCRAFT PREMIER
(PRM1)
More flights by this aircraft type
Origin: KSBA Santa Barbara Mun
United States
Destination: KBUR Bob Hope-Burbank
United States
More flights between these airports :: More routes between these airports
Route: HENER V186 FIM
File this flight plan on PilotEdge
Remarks:
Altitude:
(Current/Filed)
13,500ft
Speed:
(Current/Filed)
250kts
Departed: 11-Feb-22 11:41 AM
Arrived: 11-Feb-22 12:05 PM
Distance/Time
Traveled:
75nm/0:24
Distance/Time
To Go:
Arrived

Flight Plot

Page will automatically refresh every two minutes.


Map Options




Map Legend


Flown Route
Filed Route
Departure Airport
Arrival Airport
Navaid (VOR, NDB)
Fix

Horizontal Profiles

Position Reports

Time Latitude Longitude Heading Altitude Ground
Speed
11-Feb-22 11:19 34.422633 -119.835580 340 13ft 0kts
11-Feb-22 11:20 34.422633 -119.835580 340 13ft 0kts
11-Feb-22 11:21 34.422633 -119.835580 340 13ft 0kts
11-Feb-22 11:22 34.422633 -119.835580 340 13ft 0kts
11-Feb-22 11:23 34.422633 -119.835580 340 13ft 0kts
11-Feb-22 11:24 34.422633 -119.835580 340 13ft 0kts
11-Feb-22 11:25 34.422633 -119.835580 340 13ft 0kts
11-Feb-22 11:26 34.422633 -119.835580 340 13ft 0kts
11-Feb-22 11:27 34.422633 -119.835580 340 13ft 0kts
11-Feb-22 11:28 34.422633 -119.835580 340 13ft 0kts
11-Feb-22 11:29 34.422633 -119.835580 340 13ft 0kts
11-Feb-22 11:30 34.422633 -119.835580 340 13ft 0kts
11-Feb-22 11:31 34.422633 -119.835580 340 13ft 0kts
11-Feb-22 11:32 34.422633 -119.835580 340 13ft 0kts
11-Feb-22 11:33 34.422633 -119.835580 340 13ft 0kts
11-Feb-22 11:34 34.422866 -119.836642 296 14ft 11kts
11-Feb-22 11:35 34.426030 -119.838195 346 14ft 17kts
11-Feb-22 11:36 34.426754 -119.835023 84 13ft 7kts
11-Feb-22 11:37 34.427118 -119.834640 355 13ft 0kts
11-Feb-22 11:38 34.427118 -119.834640 355 13ft 0kts
11-Feb-22 11:39 34.427552 -119.834678 346 13ft 11kts
11-Feb-22 11:40 34.427086 -119.863054 265 504ft 170kts
11-Feb-22 11:41 34.422676 -119.932914 264 2796ft 254kts
11-Feb-22 11:42 34.416884 -120.014318 264 2884ft 228kts
11-Feb-22 11:43 34.412102 -120.086601 263 2887ft 207kts
11-Feb-22 11:44 34.382174 -120.117408 125 2950ft 190kts
11-Feb-22 11:45 34.375330 -120.048854 92 5118ft 237kts
11-Feb-22 11:46 34.371842 -119.961990 92 7168ft 277kts
11-Feb-22 11:47 34.368201 -119.867702 92 9167ft 278kts
11-Feb-22 11:48 34.364625 -119.774632 92 11159ft 281kts
11-Feb-22 11:49 34.360906 -119.677995 92 13168ft 294kts
11-Feb-22 11:50 34.356843 -119.569644 92 13399ft 350kts
11-Feb-22 11:51 34.353029 -119.446783 101 13397ft 379kts
11-Feb-22 11:52 34.331861 -119.320097 101 13390ft 387kts
11-Feb-22 11:53 34.310415 -119.192441 101 13389ft 388kts
11-Feb-22 11:54 34.299313 -119.064934 70 13433ft 385kts
11-Feb-22 11:55 34.332668 -118.943355 71 13388ft 375kts
11-Feb-22 11:56 34.365354 -118.825448 71 13388ft 365kts
11-Feb-22 11:57 34.348090 -118.715277 111 11467ft 324kts
11-Feb-22 11:58 34.310405 -118.626170 143 7902ft 265kts
11-Feb-22 11:59 34.253774 -118.582515 131 4352ft 231kts
11-Feb-22 12:00 34.230158 -118.515984 110 3385ft 205kts
11-Feb-22 12:01 34.210769 -118.456201 110 2103ft 188kts
11-Feb-22 12:02 34.199127 -118.402501 91 1186ft 144kts
11-Feb-22 12:03 34.197789 -118.359937 83 718ft 91kts
11-Feb-22 12:04 34.197225 -118.354800 267 706ft 0kts
11-Feb-22 12:05 34.197218 -118.355016 271 707ft 9kts
11-Feb-22 12:06 34.194944 -118.355042 38 702ft 5kts
11-Feb-22 12:07 34.194982 -118.355000 43 702ft 0kts
11-Feb-22 12:08 34.194982 -118.355000 43 702ft 0kts
11-Feb-22 12:09 34.194982 -118.355000 43 702ft 0kts
11-Feb-22 12:10 34.194982 -118.355000 43 702ft 0kts
11-Feb-22 12:11 34.194982 -118.355000 43 702ft 0kts
11-Feb-22 12:12 34.194982 -118.355000 43 702ft 0kts
11-Feb-22 12:13 34.194982 -118.355000 43 702ft 0kts
11-Feb-22 12:14 34.194982 -118.355000 43 702ft 0kts
11-Feb-22 12:15 34.194982 -118.355000 43 702ft 0kts
11-Feb-22 12:16 34.194982 -118.355000 43 702ft 0kts
11-Feb-22 12:17 34.194982 -118.355000 43 702ft 0kts
11-Feb-22 12:18 34.194982 -118.355000 43 702ft 0kts

Navigation Log

Ident Type
Flight plan parsing failed, navigation log unavailable